Time;durP1;ratioP1;P1;durP2;ratioP2;P2;SDS_P1;SDS_P2;PMS_P1;PMS_P2;Temp;Humidity;BMP_temperature;BMP_pressure;BME280_temperature;BME280_humidity;BME280_pressure;Samples;Min_cycle;Max_cycle;Signal;HPM_P1;HPM_P2
2023/02/03 00:00:27;;;;;;;3.58;1.38;;;8.50;92.10;;;;;;5926545;24;20078;-77
2023/02/03 00:10:51;;;;;;;3.08;1.00;;;8.60;92.10;;;;;;5758613;24;20082;-77
2023/02/03 00:52:40;;;;;;;4.82;1.67;;;8.60;91.90;;;;;;5720053;25;20145;-78
2023/02/03 01:03:18;;;;;;;3.72;1.40;;;8.80;91.90;;;;;;5779688;24;20550;-76
2023/02/03 01:06:16;;;;;;;4.63;1.65;;;8.70;91.90;;;;;;5709905;25;20492;-77
2023/02/03 01:08:42;;;;;;;3.75;1.17;;;8.70;91.90;;;;;;5660493;25;20032;-76
2023/02/03 01:11:10;;;;;;;4.50;1.38;;;8.70;91.90;;;;;;5682073;25;20065;-76
2023/02/03 01:13:36;;;;;;;4.45;1.48;;;8.70;91.90;;;;;;5680015;25;20028;-77
2023/02/03 01:16:05;;;;;;;4.30;1.40;;;8.70;91.90;;;;;;5680644;25;20121;-77
2023/02/03 01:18:31;;;;;;;3.50;1.58;;;8.80;91.90;;;;;;5681521;25;20032;-77
2023/02/03 01:20:57;;;;;;;4.20;1.27;;;8.80;92.00;;;;;;5615169;25;20022;-78
2023/02/03 01:23:22;;;;;;;5.45;1.38;;;8.80;91.90;;;;;;5631849;25;20062;-77
2023/02/03 01:25:48;;;;;;;3.78;1.10;;;8.80;91.90;;;;;;5633276;24;20066;-77
2023/02/03 01:28:14;;;;;;;2.97;1.38;;;8.80;91.90;;;;;;5762334;24;20031;-77
2023/02/03 01:30:39;;;;;;;3.13;1.33;;;8.80;92.00;;;;;;5860565;24;20489;-77
2023/02/03 01:33:05;;;;;;;3.08;1.30;;;8.80;92.00;;;;;;5949269;24;20016;-77
2023/02/03 01:35:33;;;;;;;3.88;1.30;;;8.80;92.00;;;;;;6005178;23;20050;-78
2023/02/03 01:37:59;;;;;;;3.47;1.80;;;8.80;92.20;;;;;;6040962;23;20050;-77
2023/02/03 01:40:25;;;;;;;3.90;1.30;;;8.80;92.00;;;;;;6041141;23;20011;-78
2023/02/03 01:42:50;;;;;;;3.85;1.50;;;8.80;92.00;;;;;;6065144;23;20011;-78
2023/02/03 01:45:18;;;;;;;3.70;1.60;;;8.80;91.90;;;;;;6061195;23;20015;-79
2023/02/03 01:47:59;;;;;;;5.20;1.70;;;8.90;91.90;;;;;;6188651;23;20111;-76
2023/02/03 01:50:31;;;;;;;4.25;1.67;;;8.80;91.90;;;;;;6187902;23;20074;-77
2023/02/03 01:53:07;;;;;;;3.03;1.58;;;8.80;91.90;;;;;;6188459;23;20008;-77
2023/02/03 01:55:39;;;;;;;8.57;1.80;;;8.90;92.20;;;;;;6188386;23;20087;-77
2023/02/03 01:58:10;;;;;;;4.38;1.50;;;8.80;91.80;;;;;;6187906;23;20051;-77
2023/02/03 02:00:35;;;;;;;5.67;1.53;;;8.80;91.80;;;;;;6163326;23;20429;-77
2023/02/03 02:03:03;;;;;;;6.97;1.85;;;8.80;91.90;;;;;;6214339;23;20247;-76
2023/02/03 02:05:38;;;;;;;3.45;1.50;;;8.90;91.90;;;;;;6188450;23;20016;-77
2023/02/03 02:08:05;;;;;;;3.70;1.40;;;8.90;91.80;;;;;;6186046;23;20455;-77
2023/02/03 02:10:32;;;;;;;4.30;1.40;;;8.90;91.80;;;;;;6214543;23;20035;-77
2023/02/03 02:13:00;;;;;;;3.13;1.30;;;8.90;91.80;;;;;;6214343;23;20441;-77
2023/02/03 02:15:49;;;;;;;2.78;1.40;;;8.90;91.80;;;;;;6214404;23;20472;-77
2023/02/03 02:18:54;;;;;;;2.65;1.45;;;8.80;91.80;;;;;;6188333;23;20128;-77
2023/02/03 02:21:44;;;;;;;3.83;1.52;;;8.90;91.80;;;;;;6214593;23;20092;-77
2023/02/03 02:24:44;;;;;;;5.82;1.42;;;8.80;91.80;;;;;;6214895;23;20447;-77
2023/02/03 02:27:49;;;;;;;6.07;1.20;;;8.90;91.80;;;;;;6214925;23;20083;-77
2023/02/03 02:30:35;;;;;;;4.63;1.27;;;8.80;91.80;;;;;;6176139;23;20102;-77
2023/02/03 02:33:26;;;;;;;3.33;1.20;;;8.80;91.80;;;;;;6188336;23;20027;-77
2023/02/03 02:36:10;;;;;;;3.58;1.33;;;8.80;91.80;;;;;;6187918;23;20019;-77
2023/02/03 02:38:57;;;;;;;3.60;1.58;;;8.90;91.80;;;;;;6215050;23;20012;-77
2023/02/03 02:41:41;;;;;;;4.82;1.27;;;8.80;91.80;;;;;;6188238;23;20483;-77
2023/02/03 02:44:15;;;;;;;3.08;1.40;;;8.80;91.80;;;;;;6188321;23;20012;-77
2023/02/03 02:46:46;;;;;;;4.13;1.30;;;8.80;91.80;;;;;;6188296;23;20075;-77
2023/02/03 02:49:21;;;;;;;2.85;1.42;;;8.90;92.10;;;;;;6189048;23;20043;-77
2023/02/03 02:51:49;;;;;;;5.70;1.80;;;8.80;91.80;;;;;;6163599;23;20008;-77
2023/02/03 02:54:18;;;;;;;5.18;1.60;;;8.80;91.80;;;;;;6215454;23;20016;-77
2023/02/03 02:56:49;;;;;;;5.32;1.63;;;8.80;91.70;;;;;;6214694;23;20009;-77
2023/02/03 02:59:15;;;;;;;2.70;1.20;;;8.80;91.70;;;;;;6214796;23;20390;-76
2023/02/03 03:01:40;;;;;;;3.58;1.50;;;8.80;91.70;;;;;;6215504;23;20059;-77
2023/02/03 03:04:10;;;;;;;2.50;1.15;;;8.80;91.70;;;;;;6214712;23;20030;-77
2023/02/03 03:06:45;;;;;;;2.30;1.00;;;8.80;91.60;;;;;;6188943;23;20328;-77
2023/02/03 03:09:18;;;;;;;2.10;0.90;;;8.90;91.60;;;;;;6163367;23;20336;-77
2023/02/03 03:11:52;;;;;;;3.95;1.30;;;8.80;91.60;;;;;;6163893;23;20081;-77
2023/02/03 03:14:19;;;;;;;1.90;1.05;;;8.90;91.70;;;;;;6214453;23;20015;-77
2023/02/03 03:16:53;;;;;;;2.67;1.10;;;8.90;91.90;;;;;;6214736;23;20500;-77
2023/02/03 03:19:24;;;;;;;4.57;1.10;;;8.80;91.60;;;;;;6214887;23;20005;-77
2023/02/03 03:21:56;;;;;;;2.58;0.82;;;8.80;91.60;;;;;;6214568;23;20004;-77
2023/02/03 03:24:28;;;;;;;1.70;0.90;;;8.90;91.60;;;;;;6164014;23;20041;-77
2023/02/03 03:27:05;;;;;;;2.38;1.00;;;8.90;91.60;;;;;;6190517;23;20015;-77
2023/02/03 03:29:44;;;;;;;4.82;1.33;;;8.90;91.60;;;;;;6214519;23;20332;-77
2023/02/03 03:32:10;;;;;;;3.00;1.00;;;8.80;91.60;;;;;;6188705;23;20020;-76
2023/02/03 03:34:36;;;;;;;2.85;1.33;;;8.90;91.60;;;;;;6214840;23;20019;-77
2023/02/03 03:37:11;;;;;;;4.93;1.50;;;8.90;91.60;;;;;;6188082;23;20017;-77
2023/02/03 03:39:53;;;;;;;3.47;1.30;;;8.90;91.60;;;;;;6189343;23;20015;-77
2023/02/03 03:42:28;;;;;;;4.13;1.38;;;9.00;91.50;;;;;;6188623;23;20012;-77
2023/02/03 03:45:10;;;;;;;3.42;1.52;;;9.00;91.50;;;;;;6188289;23;20078;-78
2023/02/03 03:47:52;;;;;;;5.28;1.50;;;8.90;91.40;;;;;;6187585;23;20008;-77
2023/02/03 03:50:22;;;;;;;6.25;1.60;;;9.00;91.40;;;;;;6214623;23;20055;-77
2023/02/03 03:52:49;;;;;;;2.85;1.20;;;9.00;91.40;;;;;;6188682;23;20040;-77
2023/02/03 03:55:18;;;;;;;3.28;1.38;;;9.00;91.40;;;;;;6187617;23;20063;-77
2023/02/03 03:57:53;;;;;;;5.10;1.60;;;9.00;91.40;;;;;;6214496;23;20055;-77
2023/02/03 04:00:22;;;;;;;2.55;1.38;;;9.00;91.40;;;;;;6215459;23;20079;-77
2023/02/03 04:02:52;;;;;;;5.40;1.42;;;9.00;91.40;;;;;;6188920;23;20088;-77
2023/02/03 04:05:19;;;;;;;4.65;1.63;;;9.00;91.40;;;;;;6214299;23;20008;-77
2023/02/03 04:07:46;;;;;;;3.72;1.20;;;9.00;91.40;;;;;;6214762;23;20013;-77
2023/02/03 04:10:33;;;;;;;3.95;1.55;;;9.00;91.40;;;;;;6188100;23;20095;-77
2023/02/03 04:12:59;;;;;;;2.70;1.40;;;9.00;91.40;;;;;;6213714;23;20503;-77
2023/02/03 04:15:25;;;;;;;3.30;1.40;;;9.00;91.30;;;;;;6162912;23;20012;-77
2023/02/03 04:17:51;;;;;;;4.97;1.63;;;9.00;91.30;;;;;;6187976;23;20019;-77
2023/02/03 04:20:16;;;;;;;3.47;1.20;;;9.00;91.30;;;;;;6187419;23;20033;-77
2023/02/03 04:22:42;;;;;;;4.88;1.42;;;9.00;91.20;;;;;;6187616;23;20340;-77
2023/02/03 04:25:08;;;;;;;3.33;1.38;;;9.10;91.20;;;;;;6164022;23;20013;-77
2023/02/03 04:27:34;;;;;;;4.18;1.50;;;9.10;91.20;;;;;;6215849;23;20083;-77
2023/02/03 04:30:00;;;;;;;4.45;1.67;;;9.00;91.20;;;;;;6216819;23;20032;-78
2023/02/03 04:32:26;;;;;;;5.07;1.60;;;9.10;91.20;;;;;;6189342;23;20460;-77
2023/02/03 04:34:51;;;;;;;3.45;1.20;;;9.10;91.20;;;;;;6189614;23;20503;-76
2023/02/03 04:37:17;;;;;;;7.38;1.70;;;9.10;91.20;;;;;;6164207;23;20008;-77
2023/02/03 04:39:43;;;;;;;6.22;1.35;;;9.20;91.20;;;;;;6215469;23;20522;-77
2023/02/03 04:42:08;;;;;;;3.83;1.45;;;9.20;91.10;;;;;;6215552;23;20012;-77
2023/02/03 04:44:34;;;;;;;4.90;1.30;;;9.20;91.10;;;;;;6216815;23;20008;-76
2023/02/03 04:47:00;;;;;;;2.75;1.65;;;9.10;91.10;;;;;;6215837;23;20063;-77
2023/02/03 04:49:25;;;;;;;5.18;1.17;;;9.10;91.10;;;;;;6216271;23;20016;-77
2023/02/03 04:51:51;;;;;;;4.43;1.50;;;9.20;91.10;;;;;;6215626;23;20008;-77
2023/02/03 04:54:16;;;;;;;2.75;1.23;;;9.20;91.00;;;;;;6215806;23;20009;-77
2023/02/03 04:56:42;;;;;;;3.22;1.35;;;9.20;91.00;;;;;;6189210;23;20016;-77
2023/02/03 04:59:08;;;;;;;3.38;1.27;;;9.20;91.00;;;;;;6177551;23;20056;-77
2023/02/03 05:01:34;;;;;;;5.35;1.50;;;9.20;91.00;;;;;;6216370;23;20011;-77
2023/02/03 05:03:59;;;;;;;3.38;1.02;;;9.20;91.00;;;;;;6216003;23;20012;-77
2023/02/03 05:06:28;;;;;;;3.67;1.20;;;9.20;91.00;;;;;;6216201;23;20510;-77
2023/02/03 05:08:54;;;;;;;3.60;1.27;;;9.10;90.90;;;;;;6190808;23;20036;-77
2023/02/03 05:11:21;;;;;;;5.03;1.15;;;9.20;91.00;;;;;;6189565;23;20075;-77
2023/02/03 05:13:47;;;;;;;2.47;1.00;;;9.20;91.00;;;;;;6215966;23;20016;-77
2023/02/03 05:16:13;;;;;;;2.20;1.13;;;9.20;90.90;;;;;;6215740;23;20016;-78
2023/02/03 05:18:39;;;;;;;6.10;1.33;;;9.20;91.20;;;;;;6189516;23;20017;-77
2023/02/03 05:21:04;;;;;;;2.42;1.50;;;9.20;90.90;;;;;;6215883;23;20441;-77
2023/02/03 05:23:30;;;;;;;2.40;1.00;;;9.30;91.00;;;;;;6164345;23;20087;-77
2023/02/03 05:25:56;;;;;;;4.97;1.20;;;9.20;90.90;;;;;;6190113;23;20065;-77
2023/02/03 05:28:21;;;;;;;2.97;0.95;;;9.20;90.90;;;;;;6189753;23;20059;-77
2023/02/03 05:30:47;;;;;;;6.25;1.23;;;9.20;90.90;;;;;;6164840;23;20035;-77
2023/02/03 05:33:12;;;;;;;4.50;1.20;;;9.30;90.90;;;;;;6216212;23;20004;-77
2023/02/03 05:35:38;;;;;;;3.33;1.08;;;9.20;90.90;;;;;;6189538;23;20345;-77
2023/02/03 05:38:04;;;;;;;8.93;1.60;;;9.30;90.90;;;;;;6216731;23;20388;-77
2023/02/03 05:43:12;;;;;;;5.88;1.60;;;9.30;90.80;;;;;;6190513;23;20013;-77
2023/02/03 05:45:37;;;;;;;3.88;1.20;;;9.30;90.80;;;;;;6189232;23;20011;-77
2023/02/03 05:48:03;;;;;;;2.13;1.13;;;9.30;90.70;;;;;;6189097;23;20067;-77
2023/02/03 05:50:32;;;;;;;4.15;1.10;;;9.40;90.80;;;;;;6189673;23;20012;-77
2023/02/03 05:53:02;;;;;;;2.92;1.23;;;9.30;90.80;;;;;;6214977;23;20008;-76
2023/02/03 05:55:29;;;;;;;4.65;1.02;;;9.30;91.10;;;;;;6188751;23;20018;-76
2023/02/03 05:57:55;;;;;;;3.47;1.20;;;9.30;90.80;;;;;;6163417;23;20009;-77
2023/02/03 06:00:22;;;;;;;3.58;1.20;;;9.30;90.80;;;;;;6189401;23;20008;-76
2023/02/03 06:02:58;;;;;;;6.43;1.45;;;9.30;90.80;;;;;;6190266;23;20004;-76
2023/02/03 06:05:24;;;;;;;5.43;1.30;;;9.30;90.80;;;;;;6217237;23;20059;-77
2023/02/03 06:07:50;;;;;;;5.80;1.30;;;9.30;90.80;;;;;;6137935;23;20024;-77
2023/02/03 06:10:17;;;;;;;5.97;1.42;;;9.20;90.70;;;;;;6217957;23;20062;-76
2023/02/03 06:12:42;;;;;;;3.67;1.13;;;9.30;90.80;;;;;;6165642;23;20460;-77
2023/02/03 06:15:09;;;;;;;2.55;1.13;;;9.30;90.80;;;;;;6217272;23;20015;-78
2023/02/03 06:17:35;;;;;;;3.35;1.33;;;9.20;90.80;;;;;;6190514;23;20025;-77
2023/02/03 06:20:03;;;;;;;4.95;1.10;;;9.20;90.80;;;;;;6189518;23;20012;-76
2023/02/03 06:22:28;;;;;;;3.10;0.85;;;9.20;90.80;;;;;;6186835;23;20008;-76
2023/02/03 06:24:54;;;;;;;5.43;1.00;;;9.20;90.80;;;;;;6215379;23;20328;-76
2023/02/03 06:27:20;;;;;;;2.35;1.00;;;9.20;90.80;;;;;;6189459;23;20016;-76
2023/02/03 06:29:45;;;;;;;2.63;0.90;;;9.20;90.80;;;;;;6189179;23;20011;-76
2023/02/03 06:32:11;;;;;;;3.17;1.17;;;9.20;90.90;;;;;;6216043;23;20136;-76
2023/02/03 06:34:36;;;;;;;3.58;1.27;;;9.20;90.90;;;;;;6188560;23;20500;-76
2023/02/03 06:37:02;;;;;;;3.20;1.10;;;9.10;90.80;;;;;;6189391;23;20067;-76
2023/02/03 06:39:28;;;;;;;2.75;1.27;;;9.20;90.90;;;;;;6188933;23;20012;-76
2023/02/03 06:41:55;;;;;;;5.32;1.35;;;9.20;90.90;;;;;;6215729;23;20004;-76
2023/02/03 06:44:20;;;;;;;4.00;1.10;;;9.20;90.90;;;;;;6188597;23;20047;-76
2023/02/03 06:46:46;;;;;;;2.20;0.77;;;9.20;90.90;;;;;;6215086;23;20012;-76
2023/02/03 06:49:12;;;;;;;4.00;1.05;;;9.20;90.90;;;;;;6214904;23;20016;-76
2023/02/03 06:51:37;;;;;;;6.50;1.30;;;9.10;90.90;;;;;;6214755;23;20055;-76
2023/02/03 06:54:03;;;;;;;3.35;1.20;;;9.10;90.90;;;;;;6188425;23;20008;-76
2023/02/03 06:56:30;;;;;;;4.78;1.20;;;9.20;90.90;;;;;;6187918;23;20369;-77
2023/02/03 06:58:56;;;;;;;3.03;1.13;;;9.20;90.90;;;;;;6188430;23;20015;-77
2023/02/03 07:01:22;;;;;;;5.22;1.48;;;9.10;90.90;;;;;;6188677;23;20005;-77
2023/02/03 07:03:48;;;;;;;2.67;0.93;;;9.10;90.90;;;;;;6188252;23;20502;-76
2023/02/03 07:06:14;;;;;;;3.35;1.30;;;9.20;90.90;;;;;;6215180;23;20004;-76
2023/02/03 07:08:40;;;;;;;2.90;1.10;;;9.20;90.90;;;;;;6188158;23;20337;-75
2023/02/03 07:11:06;;;;;;;1.90;0.93;;;9.10;90.90;;;;;;6188580;23;20078;-76
2023/02/03 07:13:32;;;;;;;3.50;1.00;;;9.20;90.90;;;;;;6214934;23;20444;-76
2023/02/03 07:15:57;;;;;;;4.90;1.40;;;9.10;90.90;;;;;;6214453;23;20004;-76
2023/02/03 07:18:25;;;;;;;3.58;1.10;;;9.10;90.90;;;;;;6187751;23;20020;-76
2023/02/03 07:20:51;;;;;;;4.00;1.40;;;9.10;90.90;;;;;;6163921;23;20425;-76
2023/02/03 07:23:18;;;;;;;4.72;1.23;;;9.10;90.90;;;;;;6214704;23;20139;-75
2023/02/03 07:25:44;;;;;;;3.10;1.00;;;9.10;90.90;;;;;;6214368;23;20429;-77
2023/02/03 07:28:09;;;;;;;3.40;1.30;;;9.10;90.90;;;;;;6187971;23;20096;-76
2023/02/03 07:30:35;;;;;;;3.67;1.15;;;9.10;90.90;;;;;;6188152;23;20012;-76
2023/02/03 07:33:01;;;;;;;3.55;0.93;;;9.10;90.90;;;;;;6215592;23;20400;-74
2023/02/03 07:35:26;;;;;;;2.83;1.08;;;9.10;90.90;;;;;;6187768;23;20464;-74
2023/02/03 07:37:52;;;;;;;3.30;1.00;;;9.10;90.90;;;;;;6188406;23;20008;-75
2023/02/03 07:40:18;;;;;;;4.65;1.63;;;9.10;90.90;;;;;;6214532;23;20020;-74
2023/02/03 07:42:46;;;;;;;3.05;1.30;;;9.10;90.90;;;;;;6162923;23;20015;-74
2023/02/03 07:45:13;;;;;;;4.15;1.65;;;9.10;90.90;;;;;;6187667;23;20345;-76
2023/02/03 07:47:40;;;;;;;4.15;1.00;;;9.10;90.90;;;;;;6138415;23;20012;-75
2023/02/03 07:50:06;;;;;;;5.60;1.60;;;9.10;90.90;;;;;;6214061;23;20009;-75
2023/02/03 07:52:32;;;;;;;4.90;1.30;;;9.10;90.90;;;;;;6214233;23;20951;-75
2023/02/03 07:54:57;;;;;;;4.75;1.35;;;9.10;90.90;;;;;;6214061;23;20337;-75
2023/02/03 07:57:23;;;;;;;5.57;1.33;;;9.10;90.90;;;;;;6138013;23;20015;-76
2023/02/03 07:59:48;;;;;;;3.47;1.40;;;9.10;90.90;;;;;;6163976;23;20028;-75
2023/02/03 08:02:14;;;;;;;3.17;1.00;;;9.10;90.90;;;;;;6188897;23;20329;-75
2023/02/03 08:04:40;;;;;;;2.67;1.40;;;9.10;90.90;;;;;;6165215;23;20008;-74
2023/02/03 08:07:05;;;;;;;3.58;1.30;;;9.10;90.90;;;;;;6189085;23;20009;-75
2023/02/03 08:09:31;;;;;;;4.78;1.42;;;9.10;90.90;;;;;;6188900;23;20019;-75
2023/02/03 08:11:56;;;;;;;3.45;1.27;;;9.10;90.90;;;;;;6215397;23;20337;-74
2023/02/03 08:14:22;;;;;;;3.63;1.50;;;9.20;90.90;;;;;;6215399;23;20008;-75
2023/02/03 08:16:48;;;;;;;3.28;1.27;;;9.20;90.90;;;;;;6215725;23;20019;-74
2023/02/03 08:19:14;;;;;;;3.65;1.15;;;9.10;90.90;;;;;;6215620;23;20083;-74
2023/02/03 08:21:39;;;;;;;3.83;1.02;;;9.10;90.90;;;;;;6216275;23;20005;-75
2023/02/03 08:24:05;;;;;;;2.88;1.08;;;9.20;90.90;;;;;;6216691;23;20344;-75
2023/02/03 08:26:31;;;;;;;4.25;1.40;;;9.20;90.90;;;;;;6215338;23;20032;-74
2023/02/03 08:28:56;;;;;;;3.08;1.08;;;9.20;90.90;;;;;;6188815;23;20060;-75
2023/02/03 08:31:22;;;;;;;2.67;1.00;;;9.20;90.90;;;;;;6188582;23;20009;-75
2023/02/03 08:33:48;;;;;;;2.38;0.90;;;9.20;90.90;;;;;;6163706;23;20083;-75
2023/02/03 08:36:14;;;;;;;1.92;1.20;;;9.20;90.90;;;;;;6215469;23;20043;-75
2023/02/03 08:38:40;;;;;;;4.22;1.27;;;9.20;90.90;;;;;;6215526;23;20075;-75
2023/02/03 08:41:09;;;;;;;4.40;1.20;;;9.20;90.90;;;;;;6188803;23;20031;-74
2023/02/03 08:43:35;;;;;;;3.42;1.20;;;9.30;90.90;;;;;;6215818;23;20088;-75
2023/02/03 08:46:03;;;;;;;3.15;1.10;;;9.20;90.90;;;;;;6216572;23;20012;-75
2023/02/03 08:48:29;;;;;;;3.22;1.33;;;9.30;90.90;;;;;;6190025;23;20461;-75
2023/02/03 08:50:55;;;;;;;4.25;1.35;;;9.30;90.90;;;;;;6189221;23;20086;-74
2023/02/03 08:53:20;;;;;;;2.35;1.00;;;9.30;90.90;;;;;;6188833;23;20035;-76
2023/02/03 08:55:46;;;;;;;3.58;1.02;;;9.30;90.90;;;;;;6215300;23;20011;-75
2023/02/03 08:58:12;;;;;;;2.75;0.90;;;9.30;90.90;;;;;;6216691;23;20013;-74
2023/02/03 09:00:37;;;;;;;4.03;1.20;;;9.30;90.90;;;;;;6216786;23;20032;-74
2023/02/03 09:03:03;;;;;;;3.05;1.15;;;9.30;90.90;;;;;;6172515;23;19992;-74
2023/02/03 09:05:32;;;;;;;3.88;1.00;;;9.30;90.80;;;;;;6231134;23;20004;-76
2023/02/03 09:08:02;;;;;;;2.22;1.17;;;9.40;90.90;;;;;;6176476;23;20008;-75
2023/02/03 09:10:28;;;;;;;2.30;1.07;;;9.40;90.80;;;;;;6196512;23;20075;-76
2023/02/03 09:13:03;;;;;;;4.72;1.70;;;9.40;90.80;;;;;;6198508;23;20016;-77
2023/02/03 09:15:29;;;;;;;2.75;1.30;;;9.60;90.80;;;;;;6164569;23;20012;-75
2023/02/03 09:17:59;;;;;;;2.53;1.10;;;9.50;90.80;;;;;;6216659;23;20464;-77
2023/02/03 09:20:25;;;;;;;3.20;1.10;;;9.50;90.80;;;;;;6166749;23;20027;-76
2023/02/03 09:22:58;;;;;;;2.72;1.10;;;9.40;90.70;;;;;;6115300;23;20014;-75
2023/02/03 09:25:29;;;;;;;3.58;1.40;;;9.70;90.80;;;;;;6059155;23;20097;-76
2023/02/03 09:28:04;;;;;;;3.38;1.20;;;9.60;91.00;;;;;;6030919;23;20015;-76
2023/02/03 09:30:40;;;;;;;3.75;1.50;;;9.60;90.70;;;;;;6029484;23;20004;-77
2023/02/03 09:33:18;;;;;;;2.45;1.15;;;9.60;90.70;;;;;;5979051;23;20500;-77
2023/02/03 09:35:54;;;;;;;3.03;1.25;;;9.70;90.70;;;;;;5969174;23;20013;-76
2023/02/03 09:38:19;;;;;;;2.83;1.15;;;9.60;90.70;;;;;;5966320;23;20016;-76
2023/02/03 09:40:51;;;;;;;3.47;1.33;;;9.70;90.70;;;;;;5987241;23;20020;-76
2023/02/03 09:43:42;;;;;;;4.65;1.35;;;9.70;90.70;;;;;;6015444;23;20070;-75
2023/02/03 09:46:27;;;;;;;1.85;0.90;;;9.70;90.70;;;;;;5960214;23;20020;-76
2023/02/03 09:48:58;;;;;;;3.15;1.13;;;9.70;90.70;;;;;;5962576;23;20027;-76
2023/02/03 09:51:30;;;;;;;2.67;1.10;;;9.70;90.70;;;;;;6011327;23;20019;-76
2023/02/03 09:54:09;;;;;;;3.95;0.95;;;9.80;90.70;;;;;;6026929;23;20042;-76
2023/02/03 09:56:48;;;;;;;2.22;1.02;;;9.70;90.70;;;;;;6057966;23;20037;-76
2023/02/03 09:59:51;;;;;;;2.88;1.00;;;9.80;90.70;;;;;;6137547;23;20014;-77
2023/02/03 10:02:38;;;;;;;2.33;0.82;;;9.80;90.70;;;;;;6184508;23;20024;-76
2023/02/03 10:08:41;;;;;;;1.58;0.88;;;9.80;90.70;;;;;;6199308;23;20016;-78
2023/02/03 10:11:41;;;;;;;3.13;1.10;;;9.80;90.70;;;;;;6103278;23;20022;-77
2023/02/03 10:14:33;;;;;;;3.22;0.95;;;9.90;90.70;;;;;;6151841;23;20021;-79
2023/02/03 10:17:16;;;;;;;4.70;1.27;;;9.70;90.60;;;;;;6104871;23;20001;-76
2023/02/03 10:20:10;;;;;;;1.63;1.00;;;9.90;90.70;;;;;;6154618;23;20026;-78
2023/02/03 10:23:02;;;;;;;5.13;1.20;;;9.80;90.70;;;;;;6125090;23;20077;-77
2023/02/03 10:25:42;;;;;;;3.15;1.27;;;9.90;90.70;;;;;;6117802;23;20014;-78
2023/02/03 10:28:19;;;;;;;2.17;0.98;;;9.90;90.60;;;;;;6087731;23;20026;-77
2023/02/03 10:30:53;;;;;;;2.40;1.10;;;9.90;90.60;;;;;;6061819;23;20002;-77
2023/02/03 10:33:24;;;;;;;2.15;1.10;;;9.90;90.60;;;;;;6067580;23;20078;-77
2023/02/03 10:36:08;;;;;;;;;;;10.00;90.60;;;;;;6091201;23;20034;-77
2023/02/03 10:39:01;;;;;;;1.90;1.20;;;10.00;90.60;;;;;;6061939;23;19973;-77
2023/02/03 10:41:48;;;;;;;1.42;0.98;;;10.00;90.60;;;;;;6058446;23;20099;-78
2023/02/03 10:44:27;;;;;;;4.38;1.25;;;10.00;90.60;;;;;;6055605;23;20019;-77
2023/02/03 10:47:01;;;;;;;2.20;1.20;;;10.00;90.50;;;;;;6053319;23;20015;-76
2023/02/03 10:49:39;;;;;;;3.13;1.17;;;10.10;90.60;;;;;;6033270;23;20029;-76
2023/02/03 10:52:23;;;;;;;3.78;1.05;;;10.00;90.50;;;;;;5958750;23;20022;-76
2023/02/03 10:54:51;;;;;;;3.47;1.30;;;10.00;90.50;;;;;;5990306;23;20106;-76
2023/02/03 10:57:23;;;;;;;2.70;1.00;;;10.10;90.50;;;;;;6009405;23;20067;-76
2023/02/03 11:00:04;;;;;;;3.47;1.05;;;10.10;90.50;;;;;;6007091;23;20047;-75
2023/02/03 11:02:33;;;;;;;5.25;1.35;;;10.20;90.50;;;;;;6046716;23;20018;-76
2023/02/03 11:05:24;;;;;;;2.55;1.20;;;10.10;90.50;;;;;;6093590;23;20023;-77
2023/02/03 11:07:59;;;;;;;2.22;1.00;;;10.10;90.50;;;;;;6054796;23;20055;-78
2023/02/03 11:10:45;;;;;;;2.03;0.90;;;10.20;90.50;;;;;;6063721;23;20021;-77
2023/02/03 11:13:19;;;;;;;1.95;0.70;;;10.10;90.50;;;;;;6059434;23;20047;-75
2023/02/03 11:15:57;;;;;;;1.95;0.85;;;10.20;90.50;;;;;;6011402;23;20011;-76
2023/02/03 11:18:53;;;;;;;2.50;1.00;;;10.20;90.50;;;;;;6055814;23;19995;-77
2023/02/03 11:21:29;;;;;;;1.67;0.63;;;10.20;90.50;;;;;;6055910;23;20022;-77
2023/02/03 11:24:02;;;;;;;3.88;0.90;;;10.30;90.50;;;;;;6058560;23;20015;-74
2023/02/03 11:26:34;;;;;;;2.85;0.90;;;10.30;90.50;;;;;;6015359;23;20056;-75
2023/02/03 11:29:01;;;;;;;1.63;0.90;;;10.30;90.40;;;;;;6029449;23;20000;-77
2023/02/03 11:31:31;;;;;;;3.08;1.00;;;10.30;90.40;;;;;;5969515;24;20023;-76
2023/02/03 11:34:04;;;;;;;1.83;1.00;;;10.40;90.40;;;;;;5944483;24;20080;-75
2023/02/03 11:36:32;;;;;;;1.67;0.90;;;10.40;90.40;;;;;;5947147;24;20028;-76
2023/02/03 11:39:16;;;;;;;1.77;1.00;;;10.50;90.40;;;;;;5955076;24;20012;-76
2023/02/03 11:41:42;;;;;;;1.85;0.90;;;10.40;90.40;;;;;;6005568;23;20027;-75
2023/02/03 11:44:12;;;;;;;3.92;1.30;;;10.50;90.30;;;;;;6005606;23;20008;-75
2023/02/03 11:50:01;;;;;;;1.23;0.80;;;10.60;90.30;;;;;;5974887;24;20020;-74
2023/02/03 11:52:52;;;;;;;2.00;1.05;;;10.60;90.20;;;;;;5972778;24;20012;-75
2023/02/03 11:55:39;;;;;;;2.53;1.20;;;10.60;90.10;;;;;;5967826;24;20023;-78
2023/02/03 11:58:34;;;;;;;3.65;1.30;;;10.70;90.10;;;;;;5954363;24;20035;-78
2023/02/03 12:01:17;;;;;;;1.38;0.90;;;10.70;90.10;;;;;;6010657;23;20079;-76
2023/02/03 12:04:15;;;;;;;1.77;1.02;;;10.70;90.10;;;;;;6030945;23;19999;-77
2023/02/03 12:07:12;;;;;;;2.13;1.02;;;10.80;90.10;;;;;;6024276;23;20048;-75
2023/02/03 12:09:56;;;;;;;3.08;1.23;;;10.90;90.00;;;;;;6003707;23;20492;-75
2023/02/03 12:12:37;;;;;;;1.30;0.90;;;10.90;90.00;;;;;;6024791;23;20044;-76
2023/02/03 12:15:39;;;;;;;1.63;1.15;;;10.90;89.90;;;;;;6059564;23;20032;-76
2023/02/03 12:18:21;;;;;;;4.38;1.50;;;10.90;89.80;;;;;;6073298;23;20023;-74
2023/02/03 12:21:06;;;;;;;2.03;1.10;;;11.00;89.80;;;;;;6015050;23;20353;-75
2023/02/03 12:23:51;;;;;;;3.10;1.10;;;10.90;89.70;;;;;;6017592;23;20016;-75
2023/02/03 12:26:24;;;;;;;4.22;1.30;;;11.00;89.80;;;;;;5995180;24;20016;-75
2023/02/03 12:29:13;;;;;;;3.08;1.17;;;10.90;89.70;;;;;;5997978;23;20049;-75
2023/02/03 12:31:48;;;;;;;2.85;1.30;;;10.90;89.70;;;;;;6021482;23;20460;-75
2023/02/03 12:34:37;;;;;;;2.85;1.20;;;10.90;89.70;;;;;;6046395;23;20041;-75
2023/02/03 12:37:20;;;;;;;1.83;1.05;;;10.80;89.80;;;;;;6116946;23;20018;-74
2023/02/03 12:40:11;;;;;;;2.75;1.10;;;10.80;90.00;;;;;;6165766;23;20020;-75
2023/02/03 12:42:42;;;;;;;3.80;1.30;;;10.60;90.00;;;;;;6169810;23;20006;-75
2023/02/03 12:45:14;;;;;;;4.35;1.42;;;10.70;90.10;;;;;;6168194;23;20016;-75
2023/02/03 12:47:47;;;;;;;3.33;1.30;;;10.60;90.10;;;;;;6167461;23;20013;-76
2023/02/03 12:50:37;;;;;;;3.35;1.30;;;10.50;90.20;;;;;;6172177;23;20033;-75
2023/02/03 12:53:12;;;;;;;2.72;1.10;;;10.40;90.40;;;;;;6207711;23;20023;-75
2023/02/03 12:55:43;;;;;;;1.88;1.00;;;10.30;90.40;;;;;;6225133;23;20016;-75
2023/02/03 12:58:17;;;;;;;1.15;0.80;;;10.20;90.60;;;;;;6190413;23;20437;-75
2023/02/03 13:00:49;;;;;;;2.65;0.93;;;10.20;90.60;;;;;;6215650;23;20059;-75
2023/02/03 13:03:35;;;;;;;1.85;0.93;;;10.10;90.80;;;;;;6165188;23;20092;-76
2023/02/03 13:06:26;;;;;;;1.65;0.90;;;10.00;90.80;;;;;;6215303;23;20060;-77
2023/02/03 13:09:02;;;;;;;3.53;1.10;;;9.90;90.90;;;;;;6192228;23;20013;-78
2023/02/03 13:11:39;;;;;;;2.25;1.20;;;10.00;91.00;;;;;;6165156;23;20344;-76
2023/02/03 13:14:19;;;;;;;3.05;1.10;;;9.80;91.10;;;;;;6141050;23;20013;-79
2023/02/03 13:16:52;;;;;;;3.30;0.93;;;9.80;91.10;;;;;;6188539;23;20137;-77
2023/02/03 13:19:23;;;;;;;5.07;1.50;;;9.70;91.10;;;;;;6215741;23;20015;-77
2023/02/03 13:21:51;;;;;;;3.17;0.80;;;9.70;91.10;;;;;;6164699;23;20380;-78
2023/02/03 13:24:17;;;;;;;3.05;0.95;;;9.70;91.20;;;;;;6190806;23;20012;-76
2023/02/03 13:27:12;;;;;;;2.30;0.90;;;9.70;91.20;;;;;;6190028;23;20036;-78
2023/02/03 13:30:13;;;;;;;2.58;1.00;;;9.70;91.20;;;;;;6132030;23;20096;-77
2023/02/03 13:32:56;;;;;;;2.75;1.08;;;9.70;91.20;;;;;;6104928;23;20017;-77
2023/02/03 13:35:53;;;;;;;5.03;1.08;;;9.70;91.10;;;;;;6106107;23;20096;-77
2023/02/03 13:38:36;;;;;;;2.55;1.00;;;9.70;91.10;;;;;;6111804;23;20025;-78
2023/02/03 13:41:21;;;;;;;3.90;0.93;;;9.70;91.10;;;;;;6105730;23;20017;-78
2023/02/03 13:43:50;;;;;;;6.38;1.17;;;9.70;91.10;;;;;;6135596;23;20079;-77
2023/02/03 13:46:23;;;;;;;1.15;0.82;;;9.70;91.10;;;;;;6131851;23;20060;-78
2023/02/03 13:48:49;;;;;;;0.93;0.80;;;9.80;91.10;;;;;;6128890;23;20013;-78
2023/02/03 13:51:22;;;;;;;2.42;1.00;;;9.70;91.10;;;;;;6131364;23;20084;-77
2023/02/03 13:53:51;;;;;;;2.75;1.00;;;9.80;91.10;;;;;;6152833;23;20013;-78
2023/02/03 13:56:27;;;;;;;2.55;0.80;;;9.80;91.10;;;;;;6189824;23;20011;-77
2023/02/03 13:59:04;;;;;;;2.92;1.20;;;9.80;91.10;;;;;;6216106;23;20084;-78
2023/02/03 14:01:35;;;;;;;2.20;1.02;;;9.80;91.20;;;;;;6217409;23;20005;-77
2023/02/03 14:04:03;;;;;;;1.23;0.98;;;9.70;91.10;;;;;;6192653;23;20337;-77
2023/02/03 14:06:55;;;;;;;3.90;1.45;;;9.80;91.10;;;;;;6166876;23;20005;-76
2023/02/03 14:09:34;;;;;;;2.55;1.10;;;9.80;91.10;;;;;;6216766;23;20005;-76
2023/02/03 14:12:29;;;;;;;3.72;1.10;;;9.80;91.10;;;;;;6188614;23;20008;-77
2023/02/03 14:15:03;;;;;;;6.93;1.40;;;9.80;91.10;;;;;;6194464;23;20015;-76
2023/02/03 14:18:00;;;;;;;3.58;1.17;;;9.80;91.00;;;;;;6165314;23;20035;-77
2023/02/03 14:20:39;;;;;;;4.30;1.42;;;9.80;91.00;;;;;;6200290;23;20009;-77
2023/02/03 14:23:26;;;;;;;4.25;1.30;;;9.80;91.00;;;;;;6219224;23;20059;-77
2023/02/03 14:25:56;;;;;;;1.10;0.90;;;9.90;91.00;;;;;;6226897;23;20029;-77
2023/02/03 14:28:28;;;;;;;3.20;0.95;;;9.90;91.00;;;;;;6195430;23;20040;-77